Time;durP1;ratioP1;P1;durP2;ratioP2;P2;SDS_P1;SDS_P2;PMS_P1;PMS_P2;Temp;Humidity;BMP_temperature;BMP_pressure;BME280_temperature;BME280_humidity;BME280_pressure;Samples;Min_cycle;Max_cycle;Signal;HPM_P1;HPM_P2
2023/05/16 00:00:00;;;;;;;18.02;11.25;;;;;;;14.03;100.00;63447.28;5010948;28;20195;-79
2023/05/16 00:02:29;;;;;;;13.18;10.45;;;;;;;14.06;100.00;63447.84;5009128;28;20215;-79
2023/05/16 00:04:56;;;;;;;19.35;11.02;;;;;;;13.96;100.00;63443.09;5007911;28;20199;-79
2023/05/16 00:07:23;;;;;;;15.95;10.88;;;;;;;13.95;100.00;63436.94;5007590;28;20231;-79
2023/05/16 00:09:51;;;;;;;16.75;11.63;;;;;;;13.91;100.00;63433.28;5007204;28;20223;-79
2023/05/16 00:12:21;;;;;;;17.85;13.98;;;;;;;13.87;100.00;63434.25;5008932;28;20226;-79
2023/05/16 00:14:49;;;;;;;17.48;11.93;;;;;;;13.93;100.00;63434.34;5008274;28;20198;-78
2023/05/16 00:17:18;;;;;;;22.23;14.73;;;;;;;13.93;100.00;63439.97;5010817;28;20371;-78
2023/05/16 00:19:47;;;;;;;16.52;14.38;;;;;;;13.88;100.00;63430.19;5007536;28;20195;-80
2023/05/16 00:22:14;;;;;;;17.33;14.88;;;;;;;13.96;100.00;63437.47;5008038;28;20238;-78
2023/05/16 00:24:42;;;;;;;17.35;15.43;;;;;;;13.96;100.00;63434.91;5007604;28;20199;-78
2023/05/16 00:27:09;;;;;;;19.25;15.93;;;;;;;14.02;100.00;63451.88;5007683;28;20258;-79
2023/05/16 00:29:37;;;;;;;22.23;15.82;;;;;;;14.04;100.00;63445.75;5007570;28;20210;-78
2023/05/16 00:32:07;;;;;;;17.10;14.65;;;;;;;14.08;100.00;63447.84;5006449;28;20282;-78
2023/05/16 00:34:34;;;;;;;17.27;14.32;;;;;;;14.05;100.00;63449.38;5005464;28;20203;-79
2023/05/16 00:37:04;;;;;;;15.15;13.63;;;;;;;14.04;100.00;63451.41;5007341;28;20223;-79
2023/05/16 00:39:31;;;;;;;20.73;14.45;;;;;;;13.76;100.00;63420.28;5007176;28;20199;-78
2023/05/16 00:41:58;;;;;;;24.05;15.55;;;;;;;13.74;100.00;63417.69;5005571;28;20219;-77
2023/05/16 00:44:26;;;;;;;17.55;15.07;;;;;;;13.67;100.00;63410.41;5007752;28;20199;-78
2023/05/16 00:46:55;;;;;;;17.58;15.10;;;;;;;13.42;100.00;63384.47;5006115;28;20243;-78
2023/05/16 00:49:22;;;;;;;23.65;15.85;;;;;;;13.35;100.00;63374.66;5007993;28;20211;-78
2023/05/16 00:51:50;;;;;;;19.35;14.77;;;;;;;13.42;100.00;63382.44;5008420;28;20220;-79
2023/05/16 00:54:28;;;;;;;18.55;15.38;;;;;;;13.46;100.00;63388.63;5007556;28;20204;-79
2023/05/16 00:56:55;;;;;;;20.08;15.90;;;;;;;13.44;100.00;63384.50;5008009;28;20286;-80
2023/05/16 00:59:23;;;;;;;19.50;16.13;;;;;;;13.45;100.00;63388.13;5008594;28;20394;-80
2023/05/16 01:01:54;;;;;;;20.35;16.35;;;;;;;13.53;100.00;63395.91;5007766;28;20250;-80
2023/05/16 01:04:22;;;;;;;19.10;15.38;;;;;;;13.50;100.00;63393.31;5009062;28;20196;-78
2023/05/16 01:06:49;;;;;;;19.23;15.68;;;;;;;13.57;100.00;63398.00;5009831;28;20458;-79
2023/05/16 01:09:20;;;;;;;19.23;15.95;;;;;;;13.55;100.00;63393.38;5006983;28;20205;-79
2023/05/16 01:11:56;;;;;;;20.08;16.02;;;;;;;13.54;100.00;63396.94;5006770;28;20273;-80
2023/05/16 01:14:36;;;;;;;17.55;15.55;;;;;;;13.60;100.00;63401.13;5006857;28;20405;-79
2023/05/16 01:17:12;;;;;;;20.30;16.58;;;;;;;13.61;100.00;63404.72;5007837;28;20225;-78
2023/05/16 01:19:54;;;;;;;18.70;16.05;;;;;;;13.65;100.00;63406.31;5007790;28;20191;-79
2023/05/16 01:22:31;;;;;;;20.60;16.60;;;;;;;13.60;100.00;63403.16;5007399;28;20278;-79
2023/05/16 01:25:10;;;;;;;20.92;16.85;;;;;;;13.57;100.00;63405.16;5006605;28;20226;-79
2023/05/16 01:27:40;;;;;;;23.42;16.52;;;;;;;13.52;100.00;63395.38;5006802;28;20239;-78
2023/05/16 01:30:18;;;;;;;17.05;15.10;;;;;;;13.62;100.00;63400.13;5007244;28;20199;-79
2023/05/16 01:32:46;;;;;;;17.40;15.65;;;;;;;13.64;100.00;63407.31;5007437;28;20249;-79
2023/05/16 01:35:17;;;;;;;24.17;16.58;;;;;;;13.55;100.00;63395.94;5006140;28;20259;-79
2023/05/16 01:37:53;;;;;;;19.15;15.57;;;;;;;13.64;100.00;63407.31;5008869;28;20376;-79
2023/05/16 01:40:29;;;;;;;19.45;15.73;;;;;;;13.62;100.00;63405.75;5006027;28;20203;-78
2023/05/16 01:43:05;;;;;;;24.95;16.05;;;;;;;13.50;100.00;63393.31;5005684;28;20357;-78
2023/05/16 01:45:34;;;;;;;16.90;15.18;;;;;;;13.52;100.00;63394.84;5006746;28;20383;-79
2023/05/16 01:48:09;;;;;;;21.42;16.73;;;;;;;13.55;100.00;63395.41;5006137;28;20242;-79
2023/05/16 01:50:40;;;;;;;18.77;16.08;;;;;;;13.43;100.00;63385.50;5006027;28;20253;-79
2023/05/16 01:53:10;;;;;;;18.25;15.85;;;;;;;13.29;100.00;63365.88;5008150;28;20290;-77
2023/05/16 01:55:47;;;;;;;21.02;16.55;;;;;;;13.37;100.00;63379.81;5006301;28;20267;-79
2023/05/16 01:58:17;;;;;;;23.27;15.63;;;;;;;13.35;100.00;63374.66;5006372;28;20242;-78
2023/05/16 02:00:44;;;;;;;21.80;16.10;;;;;;;13.35;100.00;63380.31;5006337;28;20196;-78
2023/05/16 02:03:11;;;;;;;19.02;15.63;;;;;;;13.43;100.00;63383.47;5007457;28;20424;-79
2023/05/16 02:05:39;;;;;;;18.95;15.38;;;;;;;13.45;100.00;63385.56;5007223;28;20409;-79
2023/05/16 02:08:08;;;;;;;19.55;15.40;;;;;;;13.48;100.00;63393.25;5006069;28;20243;-78
2023/05/16 02:10:35;;;;;;;17.38;15.57;;;;;;;13.45;100.00;63390.16;5005507;28;20196;-77
2023/05/16 02:13:03;;;;;;;22.35;16.10;;;;;;;13.43;100.00;63385.50;5007553;28;20535;-78
2023/05/16 02:15:31;;;;;;;17.73;15.35;;;;;;;13.47;100.00;63389.66;5007465;28;20196;-78
2023/05/16 02:17:59;;;;;;;19.02;16.90;;;;;;;13.48;100.00;63391.22;5005663;28;20223;-80
2023/05/16 02:20:27;;;;;;;23.08;16.38;;;;;;;13.41;100.00;63386.00;5005287;28;20242;-79
2023/05/16 02:22:54;;;;;;;16.83;14.88;;;;;;;13.34;100.00;63376.69;5006230;28;20233;-79
2023/05/16 02:25:22;;;;;;;20.50;15.38;;;;;;;13.34;100.00;63376.69;5005544;28;20441;-78
2023/05/16 02:27:49;;;;;;;17.45;15.30;;;;;;;13.30;100.00;63377.16;5006492;28;20239;-78
2023/05/16 02:30:16;;;;;;;16.80;14.43;;;;;;;13.33;100.00;63375.66;5005764;28;20255;-78
2023/05/16 02:32:45;;;;;;;19.23;15.07;;;;;;;13.38;100.00;63377.78;5006356;28;20223;-79
2023/05/16 02:35:12;;;;;;;20.13;15.48;;;;;;;13.39;100.00;63378.81;5010710;28;20203;-77
2023/05/16 02:37:40;;;;;;;20.92;14.93;;;;;;;13.46;100.00;63388.63;5009301;28;20219;-79
2023/05/16 02:40:08;;;;;;;16.30;14.55;;;;;;;13.52;100.00;63399.97;5009665;28;20195;-78
2023/05/16 02:42:35;;;;;;;21.88;14.98;;;;;;;13.51;100.00;63391.78;5010139;28;20237;-78
2023/05/16 02:45:03;;;;;;;17.40;13.70;;;;;;;13.45;100.00;63385.03;5008734;28;20407;-78
2023/05/16 02:47:30;;;;;;;15.80;13.82;;;;;;;13.52;100.00;63399.97;5009411;28;20412;-78
2023/05/16 02:49:58;;;;;;;15.95;13.65;;;;;;;13.45;100.00;63392.72;5008663;28;20270;-79
2023/05/16 02:52:25;;;;;;;16.20;14.00;;;;;;;13.43;100.00;63388.59;5009405;28;20227;-79
2023/05/16 02:54:53;;;;;;;15.63;14.02;;;;;;;13.45;100.00;63385.03;5010317;28;20214;-78
2023/05/16 02:57:20;;;;;;;17.88;14.77;;;;;;;13.48;100.00;63393.78;5008567;28;20246;-78
2023/05/16 02:59:47;;;;;;;20.48;14.27;;;;;;;13.43;100.00;63380.91;5008851;28;20268;-78
2023/05/16 03:02:14;;;;;;;20.35;14.43;;;;;;;13.45;100.00;63387.59;5010840;28;20230;-78
2023/05/16 03:04:42;;;;;;;15.75;14.15;;;;;;;13.42;100.00;63384.47;5008750;28;20215;-78
2023/05/16 03:07:11;;;;;;;18.80;13.07;;;;;;;13.38;100.00;63378.28;5007226;28;20520;-78
2023/05/16 03:09:38;;;;;;;15.63;13.98;;;;;;;13.31;100.00;63367.94;5008730;28;20196;-79
2023/05/16 03:12:08;;;;;;;16.80;14.18;;;;;;;13.37;100.00;63377.25;5007376;28;20589;-77
2023/05/16 03:14:36;;;;;;;17.23;14.57;;;;;;;13.41;100.00;63386.53;5008296;28;20199;-79
2023/05/16 03:17:03;;;;;;;18.42;13.63;;;;;;;13.44;100.00;63392.19;5011202;28;20229;-78
2023/05/16 03:19:31;;;;;;;14.30;12.90;;;;;;;13.39;100.00;63378.81;5008845;28;20476;-77
2023/05/16 03:21:58;;;;;;;16.92;15.13;;;;;;;13.42;100.00;63384.47;5010267;28;20238;-79
2023/05/16 03:24:29;;;;;;;16.85;13.40;;;;;;;13.53;100.00;63391.28;5007498;28;20508;-79
2023/05/16 03:26:56;;;;;;;18.42;14.00;;;;;;;13.51;100.00;63396.91;5008738;28;20242;-80
2023/05/16 03:29:26;;;;;;;18.40;14.75;;;;;;;13.48;100.00;63390.69;5008367;28;20210;-78
2023/05/16 03:31:54;;;;;;;20.67;13.63;;;;;;;13.41;100.00;63386.53;5009720;28;20249;-78
2023/05/16 03:34:22;;;;;;;17.77;14.20;;;;;;;13.43;100.00;63383.47;5008546;28;20262;-79
2023/05/16 03:36:49;;;;;;;18.15;14.40;;;;;;;13.39;100.00;63381.38;5010044;28;20230;-79
2023/05/16 03:39:16;;;;;;;15.57;13.10;;;;;;;13.60;100.00;63403.16;5008261;28;20401;-79
2023/05/16 03:41:45;;;;;;;20.27;14.15;;;;;;;13.48;100.00;63391.22;5008650;28;20223;-78
2023/05/16 03:44:12;;;;;;;16.88;13.00;;;;;;;13.48;100.00;63388.16;5007688;28;20199;-78
2023/05/16 03:46:39;;;;;;;15.50;13.40;;;;;;;13.52;100.00;63390.25;5008396;28;20219;-79
2023/05/16 03:49:07;;;;;;;16.15;12.98;;;;;;;13.59;100.00;63404.69;5011790;28;20195;-80
2023/05/16 03:51:33;;;;;;;19.80;13.82;;;;;;;13.55;100.00;63395.94;5009707;28;20270;-79
2023/05/16 03:54:01;;;;;;;14.85;13.35;;;;;;;13.66;100.00;63411.94;5008690;28;20250;-80
2023/05/16 03:56:27;;;;;;;15.60;13.95;;;;;;;13.66;100.00;63412.47;5008927;28;20266;-79
2023/05/16 03:58:57;;;;;;;18.83;14.65;;;;;;;13.71;100.00;63407.44;5009076;28;20227;-79
2023/05/16 04:01:24;;;;;;;14.57;13.05;;;;;;;13.79;100.00;63423.41;5009492;28;20219;-80
2023/05/16 04:03:54;;;;;;;16.67;14.35;;;;;;;13.88;100.00;63432.22;5010432;28;20199;-79
2023/05/16 04:06:21;;;;;;;18.40;14.40;;;;;;;13.84;100.00;63428.06;5008686;28;20218;-78
2023/05/16 04:08:48;;;;;;;21.08;15.85;;;;;;;13.81;100.00;63422.41;5008091;28;20246;-79
2023/05/16 04:11:15;;;;;;;22.23;15.02;;;;;;;13.85;100.00;63427.06;5007556;28;20223;-78
2023/05/16 04:13:42;;;;;;;17.83;15.70;;;;;;;13.93;100.00;63436.91;5007748;28;20207;-79
2023/05/16 04:16:11;;;;;;;25.13;14.05;;;;;;;13.98;100.00;63447.22;5008058;28;20191;-80
2023/05/16 04:18:38;;;;;;;20.50;14.10;;;;;;;14.02;100.00;63438.56;5006794;28;20226;-78
2023/05/16 04:21:06;;;;;;;18.67;14.10;;;;;;;14.05;100.00;63449.88;5006801;28;20203;-77
2023/05/16 04:23:34;;;;;;;15.80;14.13;;;;;;;14.02;100.00;63443.69;5008439;28;20238;-79
2023/05/16 04:26:01;;;;;;;16.83;14.38;;;;;;;13.95;100.00;63439.50;5008045;28;20203;-78
2023/05/16 04:28:29;;;;;;;15.98;14.27;;;;;;;14.04;100.00;63445.75;5009144;28;20268;-80
2023/05/16 04:30:56;;;;;;;18.48;15.15;;;;;;;14.04;100.00;63446.28;5007376;28;20495;-79
2023/05/16 04:33:25;;;;;;;15.60;13.45;;;;;;;14.10;100.00;63452.00;5007985;28;20223;-79
2023/05/16 04:35:53;;;;;;;16.70;14.68;;;;;;;14.11;100.00;63453.03;5007442;28;20199;-79
2023/05/16 04:38:21;;;;;;;16.63;14.25;;;;;;;14.10;100.00;63454.56;5012262;28;20279;-79
2023/05/16 04:40:50;;;;;;;18.60;14.55;;;;;;;14.08;100.00;63445.28;5007113;28;20227;-79
2023/05/16 04:43:18;;;;;;;15.38;13.55;;;;;;;14.08;100.00;63447.34;5007899;28;20227;-80
2023/05/16 04:45:45;;;;;;;16.08;13.07;;;;;;;14.14;100.00;63458.69;5005996;28;20229;-79
2023/05/16 04:48:13;;;;;;;19.63;14.88;;;;;;;14.22;100.00;63470.06;5005426;28;20242;-79
2023/05/16 04:50:41;;;;;;;17.33;13.75;;;;;;;14.14;100.00;63459.22;5005841;28;20201;-80
2023/05/16 04:53:08;;;;;;;14.10;12.70;;;;;;;14.14;100.00;63459.22;5006982;28;20219;-79
2023/05/16 04:55:35;;;;;;;18.98;14.75;;;;;;;14.23;100.00;63465.47;5008103;28;20226;-79
2023/05/16 04:58:02;;;;;;;14.65;13.20;;;;;;;14.25;100.00;63470.66;5006953;28;20230;-78
2023/05/16 05:00:30;;;;;;;14.48;12.75;;;;;;;14.31;100.00;63479.44;5006295;28;20271;-80
2023/05/16 05:02:57;;;;;;;17.38;13.07;;;;;;;14.33;100.00;63473.84;5006198;28;20219;-79
2023/05/16 05:05:24;;;;;;;13.80;12.32;;;;;;;14.37;100.00;63482.59;5006948;28;20205;-79
2023/05/16 05:07:53;;;;;;;17.60;13.20;;;;;;;14.40;100.00;63486.25;5006364;28;20293;-79
2023/05/16 05:10:20;;;;;;;13.88;11.20;;;;;;;14.43;100.00;63486.78;5006748;28;20195;-79
2023/05/16 05:12:47;;;;;;;13.80;11.93;;;;;;;14.44;100.00;63489.88;5006771;28;20227;-79
2023/05/16 05:15:14;;;;;;;14.45;12.52;;;;;;;14.44;100.00;63490.41;5005798;28;20199;-78
2023/05/16 05:17:41;;;;;;;13.88;12.43;;;;;;;14.47;100.00;63495.53;5005584;28;20254;-79
2023/05/16 05:20:09;;;;;;;14.70;11.95;;;;;;;14.47;100.00;63493.50;5006449;28;20286;-78
2023/05/16 05:22:37;;;;;;;13.40;11.73;;;;;;;14.61;100.00;63505.50;5006563;28;20223;-79
2023/05/16 05:25:07;;;;;;;14.10;12.68;;;;;;;14.68;100.00;63512.75;5006961;28;20203;-78
2023/05/16 05:27:34;;;;;;;18.38;11.65;;;;;;;14.73;100.00;63515.38;5006594;28;20235;-77
2023/05/16 05:30:02;;;;;;;14.02;10.70;;;;;;;14.77;100.00;63527.22;5006308;28;20262;-78
2023/05/16 05:32:29;;;;;;;14.90;11.65;;;;;;;14.85;100.00;63535.56;5005470;28;20238;-79
2023/05/16 05:34:57;;;;;;;19.27;12.30;;;;;;;14.88;100.00;63530.97;5008098;28;20218;-79
2023/05/16 05:37:26;;;;;;;14.32;11.13;;;;;;;14.93;100.00;63538.72;5006714;28;20229;-79
2023/05/16 05:39:53;;;;;;;14.50;11.95;;;;;;;14.94;100.00;63536.69;5006701;28;20205;-77
2023/05/16 05:42:21;;;;;;;13.98;11.65;;;;;;;14.97;100.00;63539.78;5007188;28;20230;-78
2023/05/16 05:44:48;;;;;;;18.95;12.63;;;;;;;14.97;100.00;63544.94;5006878;28;20199;-80
2023/05/16 05:47:16;;;;;;;15.13;11.52;;;;;;;14.99;100.00;63547.53;5006651;28;20540;-79
2023/05/16 05:49:43;;;;;;;13.55;11.15;;;;;;;15.01;100.00;63549.59;5006468;28;20508;-78
2023/05/16 05:52:11;;;;;;;16.42;11.50;;;;;;;15.04;100.00;63552.19;5006534;28;20230;-78
2023/05/16 05:54:38;;;;;;;13.00;11.07;;;;;;;15.05;100.00;63550.66;5006375;28;20518;-78
2023/05/16 05:57:05;;;;;;;14.80;10.55;;;;;;;15.14;100.00;63562.06;5006711;28;20273;-78
2023/05/16 05:59:34;;;;;;;14.38;10.55;;;;;;;15.10;100.00;63555.34;5006334;28;20366;-79
2023/05/16 06:02:02;;;;;;;11.98;10.55;;;;;;;15.11;100.00;63556.38;5009158;28;20563;-78
2023/05/16 06:04:29;;;;;;;12.88;11.55;;;;;;;15.08;100.00;63554.31;5006962;28;20234;-79
2023/05/16 06:06:56;;;;;;;12.50;10.27;;;;;;;15.14;100.00;63562.59;5007696;28;20234;-78
2023/05/16 06:09:23;;;;;;;14.80;11.20;;;;;;;15.02;100.00;63552.69;5009756;28;20227;-78
2023/05/16 06:11:51;;;;;;;13.43;10.90;;;;;;;15.13;100.00;63559.00;5009863;28;20223;-78
2023/05/16 06:14:18;;;;;;;12.18;10.90;;;;;;;15.15;100.00;63563.63;5009945;28;20222;-78
2023/05/16 06:16:46;;;;;;;14.30;10.55;;;;;;;15.17;100.00;63563.13;5010505;28;20261;-78
2023/05/16 06:19:15;;;;;;;11.60;10.13;;;;;;;15.17;100.00;63563.13;5010333;28;20195;-78
2023/05/16 06:21:42;;;;;;;12.82;9.80;;;;;;;15.25;100.00;63571.47;5011545;28;20246;-78
2023/05/16 06:24:11;;;;;;;11.02;9.95;;;;;;;15.29;100.00;63583.31;5010305;28;20227;-79
2023/05/16 06:26:38;;;;;;;12.52;9.43;;;;;;;15.29;100.00;63578.16;5009615;28;20225;-78
2023/05/16 06:29:06;;;;;;;11.38;10.13;;;;;;;15.32;100.00;63578.75;5010458;28;20231;-79
2023/05/16 06:31:33;;;;;;;11.90;9.90;;;;;;;15.43;100.00;63594.81;5013691;28;20219;-79
2023/05/16 06:34:02;;;;;;;14.05;10.80;;;;;;;15.52;100.00;63599.53;5009585;28;20199;-79
2023/05/16 06:36:29;;;;;;;11.38;10.05;;;;;;;15.56;100.00;63603.69;5010096;28;20215;-78
2023/05/16 06:38:57;;;;;;;9.85;8.85;;;;;;;15.60;100.00;63607.84;5013370;28;20195;-79
2023/05/16 06:41:25;;;;;;;13.32;9.27;;;;;;;15.64;100.00;63608.91;5009323;28;20241;-79
2023/05/16 06:43:52;;;;;;;13.88;9.25;;;;;;;15.62;100.00;63615.06;5009432;28;20287;-78
2023/05/16 06:46:19;;;;;;;11.73;8.10;;;;;;;15.66;100.00;63613.56;5009153;28;20555;-79
2023/05/16 06:48:46;;;;;;;10.63;6.93;;;;;;;15.73;100.00;63620.84;5008448;28;20226;-78
2023/05/16 06:51:15;;;;;;;8.85;7.18;;;;;;;15.74;100.00;63621.88;5010208;28;20294;-78
2023/05/16 06:53:42;;;;;;;10.50;7.13;;;;;;;15.86;100.00;63634.34;5009291;28;20253;-79
2023/05/16 06:56:09;;;;;;;11.73;6.80;;;;;;;15.92;100.00;63640.59;5010151;28;20203;-80
2023/05/16 06:58:36;;;;;;;8.85;7.03;;;;;;;16.04;100.00;63648.47;5010083;28;20221;-79
2023/05/16 07:01:03;;;;;;;12.30;6.57;;;;;;;16.11;100.00;63663.47;5009699;28;20198;-78
2023/05/16 07:03:30;;;;;;;15.02;8.90;;;;;;;16.23;100.00;63674.88;5009908;28;20199;-78
2023/05/16 07:05:58;;;;;;;11.45;7.60;;;;;;;16.26;100.00;63678.53;5009222;28;20386;-78
2023/05/16 07:08:28;;;;;;;10.82;7.20;;;;;;;16.37;100.00;63684.31;5009783;28;20277;-79
2023/05/16 07:10:55;;;;;;;9.30;7.13;;;;;;;16.44;100.00;63699.84;5008186;28;20238;-79
2023/05/16 07:13:22;;;;;;;11.32;6.18;;;;;;;16.49;100.00;63699.91;5008338;28;20301;-78
2023/05/16 07:15:50;;;;;;;7.72;6.50;;;;;;;16.61;100.00;63709.81;5011223;28;20198;-79
2023/05/16 07:18:17;;;;;;;10.70;7.32;;;;;;;16.56;100.00;63709.75;5012813;28;20274;-79
2023/05/16 07:20:44;;;;;;;16.92;7.45;;;;;;;16.70;99.11;63721.75;5008774;28;20266;-78
2023/05/16 07:23:11;;;;;;;7.72;6.30;;;;;;;16.70;96.28;63724.34;5008066;28;20495;-78
2023/05/16 07:25:40;;;;;;;11.10;6.45;;;;;;;16.88;97.01;63745.63;5008427;28;20203;-79
2023/05/16 07:28:07;;;;;;;6.95;6.25;;;;;;;16.97;96.00;63744.19;5009818;28;20241;-79
2023/05/16 07:30:35;;;;;;;9.75;6.75;;;;;;;17.02;95.50;63754.53;5009634;28;20198;-79
2023/05/16 07:33:02;;;;;;;16.50;6.25;;;;;;;17.05;93.26;63757.66;5011369;28;20566;-79
2023/05/16 07:35:29;;;;;;;12.50;7.43;;;;;;;17.13;96.58;63768.56;5009254;28;20195;-79
2023/05/16 07:37:56;;;;;;;11.50;7.72;;;;;;;17.26;95.80;63782.59;5007774;28;20240;-79
2023/05/16 07:40:27;;;;;;;9.93;7.35;;;;;;;17.38;95.29;63794.56;5009304;28;20230;-79
2023/05/16 07:42:55;;;;;;;11.15;6.95;;;;;;;17.42;91.94;63795.66;5008928;28;20218;-78
2023/05/16 07:45:22;;;;;;;8.68;7.50;;;;;;;17.52;92.78;63809.19;5008729;28;20229;-78
2023/05/16 07:47:50;;;;;;;15.40;7.03;;;;;;;17.60;91.87;63814.41;5008214;28;20517;-79
2023/05/16 07:50:17;;;;;;;7.45;6.60;;;;;;;17.63;90.25;63817.53;5009478;28;20199;-78
2023/05/16 07:52:45;;;;;;;14.07;6.20;;;;;;;17.42;89.00;63796.16;5007225;28;20223;-78
2023/05/16 07:55:12;;;;;;;7.75;6.88;;;;;;;17.45;89.82;63798.78;5008275;28;20222;-78
2023/05/16 07:57:40;;;;;;;7.55;6.85;;;;;;;17.19;89.98;63770.19;5007862;28;20230;-79
2023/05/16 08:00:10;;;;;;;9.45;6.95;;;;;;;17.29;90.88;63785.22;5011110;28;20190;-78
2023/05/16 08:02:38;;;;;;;7.57;6.90;;;;;;;17.37;91.31;63790.44;5007648;28;20610;-79
2023/05/16 08:05:06;;;;;;;10.98;7.18;;;;;;;17.30;91.92;63784.22;5008370;28;20206;-78
2023/05/16 08:07:33;;;;;;;11.50;7.60;;;;;;;17.36;90.79;63791.97;5008054;28;20520;-78
2023/05/16 08:10:00;;;;;;;11.10;7.80;;;;;;;17.39;91.32;63793.06;5008469;28;20543;-78
2023/05/16 08:12:27;;;;;;;11.35;7.45;;;;;;;17.48;93.26;63807.06;5007124;28;20226;-79
2023/05/16 08:14:54;;;;;;;10.90;7.47;;;;;;;17.56;89.12;63813.34;5008018;28;20204;-78
2023/05/16 08:17:23;;;;;;;7.30;6.60;;;;;;;17.58;90.10;63812.84;5007654;28;20215;-79
2023/05/16 08:19:50;;;;;;;10.07;7.72;;;;;;;17.77;90.59;63834.69;5007020;28;20209;-78
2023/05/16 08:22:17;;;;;;;8.05;7.45;;;;;;;18.07;87.10;63863.34;5007989;28;20245;-79
2023/05/16 08:24:44;;;;;;;7.93;7.13;;;;;;;18.29;88.29;63886.28;5007397;28;20224;-79
2023/05/16 08:27:11;;;;;;;7.90;7.07;;;;;;;18.51;88.10;63911.28;5007374;28;20523;-78
2023/05/16 08:29:38;;;;;;;7.72;7.03;;;;;;;18.69;86.08;63933.13;5007294;28;20234;-78
2023/05/16 08:32:07;;;;;;;7.78;7.05;;;;;;;18.92;79.81;63954.53;5007398;28;20298;-78
2023/05/16 08:34:35;;;;;;;8.55;7.13;;;;;;;19.12;79.78;63974.88;5006353;28;20199;-79
2023/05/16 08:37:02;;;;;;;7.72;7.03;;;;;;;19.43;78.87;64002.56;5007205;28;20248;-78
2023/05/16 08:39:30;;;;;;;11.10;6.43;;;;;;;19.53;77.74;64015.06;5008790;28;20492;-79
2023/05/16 08:41:58;;;;;;;7.40;6.47;;;;;;;19.68;76.96;64035.34;5009233;28;20218;-79
2023/05/16 08:44:25;;;;;;;8.45;6.80;;;;;;;19.97;74.17;64057.84;5007080;28;20207;-79
2023/05/16 08:46:55;;;;;;;8.35;6.90;;;;;;;20.21;74.46;64086.00;5008572;28;20218;-79
2023/05/16 08:49:24;;;;;;;9.43;6.55;;;;;;;20.41;74.08;64106.88;5009525;28;20246;-79
2023/05/16 08:51:58;;;;;;;11.25;6.93;;;;;;;20.71;71.35;64137.66;5010145;28;20227;-80
2023/05/16 08:54:26;;;;;;;7.38;6.65;;;;;;;20.92;69.86;64159.06;5007368;28;20195;-80
2023/05/16 08:56:54;;;;;;;11.60;6.95;;;;;;;21.17;68.42;64185.72;5007869;28;20215;-79
2023/05/16 08:59:22;;;;;;;10.60;7.15;;;;;;;21.07;66.65;64177.34;5008062;28;20258;-79
2023/05/16 09:01:49;;;;;;;8.45;6.63;;;;;;;21.12;66.08;64183.06;5008134;28;20227;-78
2023/05/16 09:04:17;;;;;;;7.22;6.30;;;;;;;21.46;63.50;64218.06;5007429;28;20221;-78
2023/05/16 09:06:44;;;;;;;8.07;6.28;;;;;;;21.52;64.78;64226.91;5006819;28;20226;-78
2023/05/16 09:09:12;;;;;;;7.47;6.65;;;;;;;21.46;63.37;64218.59;5006753;28;20305;-79
2023/05/16 09:11:39;;;;;;;7.60;6.65;;;;;;;21.60;64.66;64230.09;5007943;28;20219;-80
2023/05/16 09:14:06;;;;;;;14.48;6.90;;;;;;;21.70;64.84;64248.31;5006946;28;20214;-79
2023/05/16 09:16:33;;;;;;;15.38;6.88;;;;;;;21.78;66.88;64251.50;5010791;28;20241;-78
2023/05/16 09:19:03;;;;;;;10.27;6.43;;;;;;;21.65;65.28;64235.31;5007647;28;20492;-79
2023/05/16 09:21:31;;;;;;;10.68;7.20;;;;;;;21.46;67.03;64220.66;5006086;28;20219;-80
2023/05/16 09:24:04;;;;;;;13.77;7.35;;;;;;;21.28;68.66;64196.66;5009254;28;20199;-78
2023/05/16 09:26:33;;;;;;;6.97;5.93;;;;;;;21.26;67.83;64197.69;5006885;28;20437;-78
2023/05/16 09:29:01;;;;;;;7.20;6.50;;;;;;;20.96;69.23;64168.94;5009033;28;20230;-78
2023/05/16 09:31:35;;;;;;;11.00;7.32;;;;;;;21.02;69.07;64169.53;5006943;28;20245;-78
2023/05/16 09:34:03;;;;;;;8.88;6.82;;;;;;;20.85;70.13;64154.88;5007498;28;20199;-78
2023/05/16 09:36:32;;;;;;;8.25;6.88;;;;;;;21.11;70.06;64182.03;5009461;28;20289;-78
2023/05/16 09:39:00;;;;;;;11.23;7.05;;;;;;;21.20;68.62;64193.50;5006564;28;20376;-78
2023/05/16 09:41:27;;;;;;;9.20;7.15;;;;;;;21.20;67.17;64191.44;5006775;28;20261;-79
2023/05/16 09:43:56;;;;;;;6.57;5.93;;;;;;;21.18;65.81;64186.22;5010589;28;20198;-78
2023/05/16 09:46:27;;;;;;;8.32;5.90;;;;;;;21.22;67.00;64193.53;5009927;28;20249;-78
2023/05/16 09:48:55;;;;;;;8.85;7.32;;;;;;;21.07;67.20;64174.75;5010617;28;20253;-78
2023/05/16 09:51:23;;;;;;;10.52;7.10;;;;;;;21.19;67.57;64190.38;5010885;28;20214;-79
2023/05/16 09:53:50;;;;;;;8.93;7.05;;;;;;;21.27;66.66;64198.75;5010617;28;20206;-77
2023/05/16 09:56:17;;;;;;;7.47;6.78;;;;;;;21.31;66.20;64202.91;5012906;28;20262;-78
2023/05/16 09:58:46;;;;;;;8.68;6.00;;;;;;;21.39;65.22;64211.28;5011722;28;20198;-78
2023/05/16 10:01:15;;;;;;;9.27;6.80;;;;;;;21.40;64.78;64211.78;5010984;28;20195;-78
2023/05/16 10:03:43;;;;;;;8.77;7.43;;;;;;;21.54;63.52;64226.94;5011469;28;20207;-77
2023/05/16 10:06:12;;;;;;;7.65;7.05;;;;;;;21.68;65.82;64236.41;5011320;28;20194;-80
2023/05/16 10:08:43;;;;;;;13.18;7.97;;;;;;;21.83;66.07;64261.94;5009365;28;20195;-78
2023/05/16 10:11:11;;;;;;;9.80;7.38;;;;;;;22.17;61.95;64287.09;5009913;28;20263;-78
2023/05/16 10:13:39;;;;;;;7.00;6.43;;;;;;;22.43;61.74;64316.88;5009235;28;20210;-78
2023/05/16 10:16:10;;;;;;;9.30;6.55;;;;;;;22.24;58.70;64296.47;5009856;28;20274;-77
2023/05/16 10:18:40;;;;;;;10.77;7.68;;;;;;;22.63;58.26;64337.78;5010019;28;20246;-78
2023/05/16 10:21:10;;;;;;;11.73;7.38;;;;;;;22.65;57.90;64341.94;5009501;28;20371;-78
2023/05/16 10:23:41;;;;;;;7.78;6.97;;;;;;;22.78;60.62;64356.06;5011421;28;20199;-78
2023/05/16 10:26:09;;;;;;;14.45;8.38;;;;;;;23.18;59.16;64394.78;5010081;28;20266;-78
2023/05/16 10:28:37;;;;;;;8.05;7.30;;;;;;;23.36;58.45;64413.63;5009883;28;20198;-79
2023/05/16 10:31:05;;;;;;;10.18;8.10;;;;;;;23.54;56.54;64429.34;5010002;28;20202;-78
2023/05/16 10:33:32;;;;;;;9.43;6.97;;;;;;;23.41;57.32;64420.94;5009033;28;20258;-78
2023/05/16 10:36:02;;;;;;;10.07;7.60;;;;;;;23.44;57.72;64421.47;5009092;28;20199;-78
2023/05/16 10:38:30;;;;;;;8.18;7.35;;;;;;;23.48;56.86;64425.66;5009802;28;20218;-80
2023/05/16 10:40:58;;;;;;;8.15;7.47;;;;;;;23.32;59.46;64411.50;5008933;28;20503;-76
2023/05/16 10:43:27;;;;;;;8.80;7.95;;;;;;;23.33;59.84;64418.28;5010645;28;20214;-78
2023/05/16 10:45:58;;;;;;;12.90;8.20;;;;;;;23.41;58.17;64421.44;5009566;28;20198;-79
2023/05/16 10:48:29;;;;;;;9.88;7.70;;;;;;;23.49;58.01;64429.28;5008398;28;20203;-78
2023/05/16 10:50:57;;;;;;;14.13;8.95;;;;;;;23.83;57.60;64465.38;5008682;28;20242;-78
2023/05/16 10:53:31;;;;;;;9.73;7.82;;;;;;;23.98;56.44;64480.56;5007409;28;20223;-78
2023/05/16 10:56:12;;;;;;;9.70;6.43;;;;;;;24.12;55.11;64495.25;5009817;28;20198;-78
2023/05/16 10:58:43;;;;;;;10.63;7.07;;;;;;;24.06;55.24;64493.66;5008086;28;20267;-78
2023/05/16 11:01:18;;;;;;;16.90;7.70;;;;;;;24.23;54.67;64506.25;5009422;28;20257;-77
2023/05/16 11:04:07;;;;;;;11.77;6.85;;;;;;;24.21;55.20;64504.66;5009310;28;20272;-78
2023/05/16 11:06:43;;;;;;;9.98;7.40;;;;;;;23.94;54.31;64476.91;5008841;28;20219;-77
2023/05/16 11:09:21;;;;;;;7.88;6.47;;;;;;;23.67;55.03;64451.25;5007785;28;20579;-77
2023/05/16 11:11:56;;;;;;;7.75;6.80;;;;;;;23.44;56.47;64421.97;5009282;28;20241;-79
2023/05/16 11:14:24;;;;;;;8.77;6.65;;;;;;;22.54;58.67;64333.03;5007765;28;20419;-78
2023/05/16 11:16:53;;;;;;;8.05;6.75;;;;;;;22.42;61.19;64317.88;5008295;28;20273;-79
2023/05/16 11:19:31;;;;;;;8.15;6.65;;;;;;;22.28;62.47;64306.38;5007184;28;20202;-79
2023/05/16 11:22:06;;;;;;;9.63;7.15;;;;;;;22.59;61.44;64336.19;5008670;28;20289;-78